createdAt,value
2019-04-20T09:27:39.514Z,22.70
2019-04-20T09:30:09.423Z,22.80
2019-04-20T09:33:08.047Z,22.90
2019-04-20T09:35:34.099Z,22.90
2019-04-20T09:38:00.231Z,23.00
2019-04-20T09:40:34.976Z,23.10
2019-04-20T09:43:04.577Z,23.30
2019-04-20T09:45:47.362Z,23.40
2019-04-20T09:48:16.707Z,23.60
2019-04-20T09:51:00.874Z,23.80
2019-04-20T09:53:24.872Z,23.90
2019-04-20T09:55:57.741Z,24.10
2019-04-20T09:58:21.288Z,24.20
2019-04-20T10:00:54.115Z,24.30
2019-04-20T10:03:10.879Z,24.40
2019-04-20T10:05:39.125Z,24.50
2019-04-20T10:08:09.885Z,24.50
2019-04-20T10:10:41.947Z,24.80
2019-04-20T10:13:07.251Z,25.00
2019-04-20T10:15:35.372Z,25.30
2019-04-20T10:18:03.708Z,25.40
2019-04-20T10:20:34.531Z,25.50
2019-04-20T10:23:00.858Z,25.70
2019-04-20T10:25:30.763Z,26.10
2019-04-20T10:27:58.636Z,26.30
2019-04-20T10:30:26.385Z,25.90
2019-04-20T10:32:55.652Z,26.10
2019-04-20T10:35:23.478Z,26.80
2019-04-20T10:37:55.710Z,27.20
2019-04-20T10:40:40.564Z,27.20
2019-04-20T10:42:53.157Z,27.50
2019-04-20T10:45:21.332Z,27.60
2019-04-20T10:47:49.186Z,28.00
2019-04-20T10:50:16.970Z,28.50
2019-04-20T10:52:45.793Z,28.60
2019-04-20T10:55:14.678Z,28.30
2019-04-20T10:57:43.810Z,28.50
2019-04-20T11:00:13.531Z,28.80
2019-04-20T11:02:44.207Z,29.00
2019-04-20T11:05:11.055Z,29.10
2019-04-20T11:07:38.830Z,29.50
2019-04-20T11:10:14.668Z,29.60
2019-04-20T11:12:38.018Z,29.70
2019-04-20T11:15:06.166Z,29.90
2019-04-20T11:17:33.733Z,29.80
2019-04-20T11:20:01.485Z,30.30
2019-04-20T11:22:30.286Z,30.60
2019-04-20T11:24:58.589Z,30.70
2019-04-20T11:27:26.267Z,30.90
2019-04-20T11:29:54.119Z,31.40
2019-04-20T11:32:22.195Z,31.00
2019-04-20T11:34:51.173Z,31.40
2019-04-20T11:37:19.348Z,31.70
2019-04-20T11:39:48.560Z,31.60
2019-04-20T11:42:17.393Z,31.40
2019-04-20T11:44:45.127Z,31.40
2019-04-20T11:47:12.742Z,31.20
2019-04-20T11:49:41.636Z,31.20
2019-04-20T11:52:09.799Z,31.50
2019-04-20T11:54:38.198Z,31.80
2019-04-20T11:57:06.975Z,31.90
2019-04-20T11:59:34.962Z,32.20
2019-04-20T12:02:29.096Z,32.30
2019-04-20T12:05:10.150Z,32.50
2019-04-20T12:07:24.934Z,32.10
2019-04-20T12:09:53.484Z,32.20
2019-04-20T12:12:30.055Z,32.20
2019-04-20T12:14:50.689Z,31.60
2019-04-20T12:17:19.556Z,31.90
2019-04-20T12:19:47.985Z,32.00
2019-04-20T12:22:16.027Z,31.90
2019-04-20T12:24:44.559Z,31.90
2019-04-20T12:27:17.049Z,31.90
2019-04-20T12:29:45.769Z,32.50
2019-04-20T12:32:14.635Z,32.90
2019-04-20T12:34:43.414Z,32.90
2019-04-20T12:37:11.304Z,33.10
2019-04-20T12:39:39.442Z,32.90
2019-04-20T12:42:09.367Z,32.40
2019-04-20T12:44:37.645Z,32.60
2019-04-20T12:47:05.755Z,32.30
2019-04-20T12:49:33.794Z,32.40
2019-04-20T12:52:06.074Z,32.70
2019-04-20T12:54:30.866Z,32.90
2019-04-20T12:56:58.649Z,33.20
2019-04-20T12:59:27.427Z,33.00
2019-04-20T13:01:55.475Z,32.80
2019-04-20T13:04:28.493Z,32.70
2019-04-20T13:06:57.625Z,32.70
2019-04-20T13:09:34.660Z,33.40
2019-04-20T13:12:32.105Z,33.90
2019-04-20T13:15:18.255Z,34.20
2019-04-20T13:17:47.983Z,34.60
2019-04-20T13:20:16.160Z,34.10
2019-04-20T13:22:44.354Z,34.10
2019-04-20T13:25:12.776Z,33.80
2019-04-20T13:27:40.963Z,34.00
2019-04-20T13:30:09.588Z,33.90
2019-04-20T13:32:38.121Z,33.70
2019-04-20T13:35:07.913Z,33.50
2019-04-20T13:37:38.559Z,33.40
2019-04-20T13:40:06.957Z,33.10
2019-04-20T13:42:36.144Z,33.50
2019-04-20T13:45:04.382Z,34.10
2019-04-20T13:47:32.756Z,34.00
2019-04-20T13:50:01.102Z,34.20
2019-04-20T13:52:28.956Z,34.60
2019-04-20T13:54:58.039Z,34.70
2019-04-20T13:57:33.732Z,34.90
2019-04-20T14:00:08.339Z,34.50
2019-04-20T14:02:44.775Z,35.10
2019-04-20T14:05:12.856Z,35.00
2019-04-20T14:07:42.703Z,35.40
2019-04-20T14:10:11.342Z,34.40
2019-04-20T14:12:50.744Z,35.60
2019-04-20T14:15:11.231Z,35.80
2019-04-20T14:17:39.308Z,35.70
2019-04-20T14:20:12.120Z,35.50
2019-04-20T14:22:36.921Z,35.40
2019-04-20T14:25:05.056Z,35.90
2019-04-20T14:27:32.971Z,35.60
2019-04-20T14:32:44.952Z,36.10
2019-04-20T14:35:12.846Z,35.90
2019-04-20T14:37:41.615Z,35.40
2019-04-20T14:40:10.330Z,35.70
2019-04-20T14:42:44.759Z,36.10
2019-04-20T14:45:08.876Z,36.60
2019-04-20T14:47:36.612Z,37.10
2019-04-20T14:50:07.528Z,37.10
2019-04-20T14:52:35.491Z,36.70
2019-04-20T14:55:03.846Z,37.00
2019-04-20T15:00:05.609Z,36.60
2019-04-20T15:02:34.255Z,37.10
2019-04-20T15:05:03.246Z,36.90
2019-04-20T15:07:31.211Z,37.40
2019-04-20T15:57:38.763Z,34.60
2019-04-20T16:00:08.606Z,34.50
2019-04-20T16:02:47.308Z,33.90
2019-04-20T16:05:47.331Z,33.90
2019-04-20T16:08:36.670Z,33.70
2019-04-20T16:11:24.117Z,33.00
2019-04-20T16:13:53.866Z,31.70
2019-04-20T16:16:21.659Z,30.50
2019-04-20T16:18:50.601Z,29.20
2019-04-20T16:21:23.065Z,28.40
2019-04-20T16:23:56.918Z,27.60
2019-04-20T16:26:29.511Z,27.10
2019-04-20T16:28:57.643Z,26.70
2019-04-20T16:31:26.760Z,26.20
2019-04-20T16:33:56.882Z,26.00
2019-04-20T16:36:26.072Z,25.90
2019-04-20T16:38:55.061Z,25.40
2019-04-20T16:41:24.190Z,25.20
2019-04-20T16:43:53.285Z,25.00
2019-04-20T16:46:23.873Z,24.70
2019-04-20T16:48:50.530Z,24.50
2019-04-20T16:51:18.734Z,24.30
2019-04-20T16:53:47.834Z,24.20
2019-04-20T16:56:17.675Z,24.10
2019-04-20T16:58:48.323Z,24.00
2019-04-20T17:01:14.457Z,23.90
2019-04-20T17:03:51.774Z,23.70
2019-04-20T17:06:11.804Z,23.60
2019-04-20T17:08:41.583Z,23.60
2019-04-20T17:11:09.811Z,23.50
2019-04-20T17:13:43.830Z,23.40
2019-04-20T17:16:07.871Z,23.20
2019-04-20T17:18:35.577Z,23.20
2019-04-20T17:21:05.909Z,23.20
2019-04-20T17:23:33.269Z,23.00
